sensor_id;sensor_type;location;lat;lon;timestamp;temperature;humidity
21772;DHT22;11047;47.904;8.110;2022-11-20T00:02:11;3.50;99.90
21772;DHT22;11047;47.904;8.110;2022-11-20T00:04:37;3.50;99.90
21772;DHT22;11047;47.904;8.110;2022-11-20T00:07:04;3.40;99.90
21772;DHT22;11047;47.904;8.110;2022-11-20T00:09:31;3.40;99.90
21772;DHT22;11047;47.904;8.110;2022-11-20T00:11:58;3.50;99.90
21772;DHT22;11047;47.904;8.110;2022-11-20T00:14:24;3.50;99.90
21772;DHT22;11047;47.904;8.110;2022-11-20T00:16:51;3.60;99.90
21772;DHT22;11047;47.904;8.110;2022-11-20T00:19:19;3.50;99.90
21772;DHT22;11047;47.904;8.110;2022-11-20T00:21:46;3.50;99.90
21772;DHT22;11047;47.904;8.110;2022-11-20T00:24:12;3.50;99.90
21772;DHT22;11047;47.904;8.110;2022-11-20T00:26:39;3.50;99.90
21772;DHT22;11047;47.904;8.110;2022-11-20T00:29:08;3.50;99.90
21772;DHT22;11047;47.904;8.110;2022-11-20T00:31:35;3.50;99.90
21772;DHT22;11047;47.904;8.110;2022-11-20T00:34:03;3.40;99.90
21772;DHT22;11047;47.904;8.110;2022-11-20T00:36:31;3.40;99.90
21772;DHT22;11047;47.904;8.110;2022-11-20T00:38:58;3.40;99.90
21772;DHT22;11047;47.904;8.110;2022-11-20T00:41:25;3.40;99.90
21772;DHT22;11047;47.904;8.110;2022-11-20T00:43:53;3.50;99.90
21772;DHT22;11047;47.904;8.110;2022-11-20T00:46:20;3.50;99.90
21772;DHT22;11047;47.904;8.110;2022-11-20T00:48:47;3.40;99.90
21772;DHT22;11047;47.904;8.110;2022-11-20T00:51:15;3.40;99.90
21772;DHT22;11047;47.904;8.110;2022-11-20T00:53:43;3.40;99.90
21772;DHT22;11047;47.904;8.110;2022-11-20T00:56:12;3.40;99.90
21772;DHT22;11047;47.904;8.110;2022-11-20T00:58:39;3.40;99.90
21772;DHT22;11047;47.904;8.110;2022-11-20T01:01:07;3.50;99.90
21772;DHT22;11047;47.904;8.110;2022-11-20T01:03:34;3.50;99.90
21772;DHT22;11047;47.904;8.110;2022-11-20T01:06:03;3.40;99.90
21772;DHT22;11047;47.904;8.110;2022-11-20T01:08:30;3.30;99.90
21772;DHT22;11047;47.904;8.110;2022-11-20T01:11:03;3.30;99.90
21772;DHT22;11047;47.904;8.110;2022-11-20T01:13:30;3.30;99.90
21772;DHT22;11047;47.904;8.110;2022-11-20T01:16:07;3.20;99.90
21772;DHT22;11047;47.904;8.110;2022-11-20T01:18:34;3.20;99.90
21772;DHT22;11047;47.904;8.110;2022-11-20T01:21:02;3.20;99.90
21772;DHT22;11047;47.904;8.110;2022-11-20T01:23:32;3.30;99.90
21772;DHT22;11047;47.904;8.110;2022-11-20T01:26:00;3.20;99.90
21772;DHT22;11047;47.904;8.110;2022-11-20T01:28:28;3.70;99.90
21772;DHT22;11047;47.904;8.110;2022-11-20T01:30:55;3.30;99.90
21772;DHT22;11047;47.904;8.110;2022-11-20T01:33:22;3.30;99.90
21772;DHT22;11047;47.904;8.110;2022-11-20T01:35:48;3.30;99.90
21772;DHT22;11047;47.904;8.110;2022-11-20T01:38:15;3.30;99.90
21772;DHT22;11047;47.904;8.110;2022-11-20T01:40:42;3.30;99.90
21772;DHT22;11047;47.904;8.110;2022-11-20T01:43:12;3.30;99.90
21772;DHT22;11047;47.904;8.110;2022-11-20T01:46:01;3.30;99.90
21772;DHT22;11047;47.904;8.110;2022-11-20T01:48:30;3.20;99.90
21772;DHT22;11047;47.904;8.110;2022-11-20T01:50:58;3.30;99.90
21772;DHT22;11047;47.904;8.110;2022-11-20T01:53:27;3.20;99.90
21772;DHT22;11047;47.904;8.110;2022-11-20T01:55:56;3.20;99.90
21772;DHT22;11047;47.904;8.110;2022-11-20T01:58:25;3.20;99.90
21772;DHT22;11047;47.904;8.110;2022-11-20T02:00:53;3.20;99.90
21772;DHT22;11047;47.904;8.110;2022-11-20T02:03:21;3.30;99.90
21772;DHT22;11047;47.904;8.110;2022-11-20T02:05:49;3.30;99.90
21772;DHT22;11047;47.904;8.110;2022-11-20T02:08:17;3.30;99.90
21772;DHT22;11047;47.904;8.110;2022-11-20T02:10:45;3.20;99.90
21772;DHT22;11047;47.904;8.110;2022-11-20T02:13:12;3.20;99.90
21772;DHT22;11047;47.904;8.110;2022-11-20T02:15:56;3.20;99.90
21772;DHT22;11047;47.904;8.110;2022-11-20T02:18:24;3.20;99.90
21772;DHT22;11047;47.904;8.110;2022-11-20T02:20:53;3.20;99.90
21772;DHT22;11047;47.904;8.110;2022-11-20T02:23:21;3.20;99.90
21772;DHT22;11047;47.904;8.110;2022-11-20T02:25:50;3.20;99.90
21772;DHT22;11047;47.904;8.110;2022-11-20T02:28:18;3.30;99.90
21772;DHT22;11047;47.904;8.110;2022-11-20T02:30:44;3.30;99.90
21772;DHT22;11047;47.904;8.110;2022-11-20T02:33:12;3.30;99.90
21772;DHT22;11047;47.904;8.110;2022-11-20T02:35:39;3.30;99.90
21772;DHT22;11047;47.904;8.110;2022-11-20T02:38:07;3.20;99.90
21772;DHT22;11047;47.904;8.110;2022-11-20T02:40:34;3.10;99.90
21772;DHT22;11047;47.904;8.110;2022-11-20T02:43:02;3.20;99.90
21772;DHT22;11047;47.904;8.110;2022-11-20T02:45:29;3.20;99.90
21772;DHT22;11047;47.904;8.110;2022-11-20T02:47:55;3.10;99.90
21772;DHT22;11047;47.904;8.110;2022-11-20T02:50:22;3.00;99.90
21772;DHT22;11047;47.904;8.110;2022-11-20T02:52:49;2.90;99.90
21772;DHT22;11047;47.904;8.110;2022-11-20T02:55:16;2.80;99.90
21772;DHT22;11047;47.904;8.110;2022-11-20T02:57:42;2.90;99.90
21772;DHT22;11047;47.904;8.110;2022-11-20T03:00:11;2.80;99.90
21772;DHT22;11047;47.904;8.110;2022-11-20T03:02:38;2.80;99.90
21772;DHT22;11047;47.904;8.110;2022-11-20T03:05:05;2.70;99.90
21772;DHT22;11047;47.904;8.110;2022-11-20T03:07:31;2.60;99.90
21772;DHT22;11047;47.904;8.110;2022-11-20T03:09:58;2.50;99.90
21772;DHT22;11047;47.904;8.110;2022-11-20T03:12:25;2.50;99.90
21772;DHT22;11047;47.904;8.110;2022-11-20T03:14:52;2.50;99.90
21772;DHT22;11047;47.904;8.110;2022-11-20T03:17:20;2.50;99.90
21772;DHT22;11047;47.904;8.110;2022-11-20T03:19:47;2.60;99.90
21772;DHT22;11047;47.904;8.110;2022-11-20T03:22:13;2.60;99.90
21772;DHT22;11047;47.904;8.110;2022-11-20T03:24:40;2.50;99.90
21772;DHT22;11047;47.904;8.110;2022-11-20T03:27:07;2.40;99.90
21772;DHT22;11047;47.904;8.110;2022-11-20T03:29:34;2.40;99.90
21772;DHT22;11047;47.904;8.110;2022-11-20T03:32:01;2.50;99.90
21772;DHT22;11047;47.904;8.110;2022-11-20T03:34:29;2.50;99.90
21772;DHT22;11047;47.904;8.110;2022-11-20T03:36:55;2.60;99.90
21772;DHT22;11047;47.904;8.110;2022-11-20T03:39:22;2.30;99.90
21772;DHT22;11047;47.904;8.110;2022-11-20T03:41:49;2.20;99.90
21772;DHT22;11047;47.904;8.110;2022-11-20T03:44:15;2.00;99.90
21772;DHT22;11047;47.904;8.110;2022-11-20T03:46:42;2.00;99.90
21772;DHT22;11047;47.904;8.110;2022-11-20T03:49:09;2.00;99.90
21772;DHT22;11047;47.904;8.110;2022-11-20T03:51:37;1.80;99.90
21772;DHT22;11047;47.904;8.110;2022-11-20T03:54:05;1.70;99.90
21772;DHT22;11047;47.904;8.110;2022-11-20T03:56:32;1.60;99.90
21772;DHT22;11047;47.904;8.110;2022-11-20T03:58:59;1.50;99.90
21772;DHT22;11047;47.904;8.110;2022-11-20T04:01:27;1.50;99.90
21772;DHT22;11047;47.904;8.110;2022-11-20T04:03:54;1.60;99.90
21772;DHT22;11047;47.904;8.110;2022-11-20T04:06:22;1.70;99.90
21772;DHT22;11047;47.904;8.110;2022-11-20T04:08:50;1.70;99.90
21772;DHT22;11047;47.904;8.110;2022-11-20T04:11:18;1.70;99.90
21772;DHT22;11047;47.904;8.110;2022-11-20T04:13:46;1.70;99.90
21772;DHT22;11047;47.904;8.110;2022-11-20T04:16:13;2.00;99.90
21772;DHT22;11047;47.904;8.110;2022-11-20T04:18:40;1.80;99.90
21772;DHT22;11047;47.904;8.110;2022-11-20T04:21:07;2.00;99.90
21772;DHT22;11047;47.904;8.110;2022-11-20T04:23:33;2.10;99.90
21772;DHT22;11047;47.904;8.110;2022-11-20T04:26:02;2.20;99.90
21772;DHT22;11047;47.904;8.110;2022-11-20T04:28:29;2.40;99.90
21772;DHT22;11047;47.904;8.110;2022-11-20T04:31:01;2.50;99.90
21772;DHT22;11047;47.904;8.110;2022-11-20T04:33:27;2.60;99.90
21772;DHT22;11047;47.904;8.110;2022-11-20T04:35:54;2.70;99.90
21772;DHT22;11047;47.904;8.110;2022-11-20T04:38:21;2.80;99.90
21772;DHT22;11047;47.904;8.110;2022-11-20T04:40:47;2.90;99.90
21772;DHT22;11047;47.904;8.110;2022-11-20T04:43:15;3.00;99.90
21772;DHT22;11047;47.904;8.110;2022-11-20T04:45:43;3.00;99.90
21772;DHT22;11047;47.904;8.110;2022-11-20T04:48:16;3.00;99.90
21772;DHT22;11047;47.904;8.110;2022-11-20T04:50:43;3.00;99.90
21772;DHT22;11047;47.904;8.110;2022-11-20T04:53:09;3.00;99.90
21772;DHT22;11047;47.904;8.110;2022-11-20T04:55:36;3.00;99.90
21772;DHT22;11047;47.904;8.110;2022-11-20T04:58:03;3.10;99.90
21772;DHT22;11047;47.904;8.110;2022-11-20T05:00:31;3.10;99.90
21772;DHT22;11047;47.904;8.110;2022-11-20T05:02:57;3.10;99.90
21772;DHT22;11047;47.904;8.110;2022-11-20T05:05:24;3.10;99.90
21772;DHT22;11047;47.904;8.110;2022-11-20T05:07:51;3.20;99.90
21772;DHT22;11047;47.904;8.110;2022-11-20T05:10:17;3.20;99.90
21772;DHT22;11047;47.904;8.110;2022-11-20T05:12:44;3.40;99.90
21772;DHT22;11047;47.904;8.110;2022-11-20T05:15:11;3.20;99.90
21772;DHT22;11047;47.904;8.110;2022-11-20T05:17:39;3.20;99.90
21772;DHT22;11047;47.904;8.110;2022-11-20T05:20:06;3.20;99.90
21772;DHT22;11047;47.904;8.110;2022-11-20T05:22:33;3.20;99.90
21772;DHT22;11047;47.904;8.110;2022-11-20T05:24:59;3.20;99.90
21772;DHT22;11047;47.904;8.110;2022-11-20T05:27:27;3.20;99.90
21772;DHT22;11047;47.904;8.110;2022-11-20T05:29:53;3.20;99.90
21772;DHT22;11047;47.904;8.110;2022-11-20T05:32:20;3.20;99.90
21772;DHT22;11047;47.904;8.110;2022-11-20T05:34:51;3.20;99.90
21772;DHT22;11047;47.904;8.110;2022-11-20T05:37:18;3.30;99.90
21772;DHT22;11047;47.904;8.110;2022-11-20T05:39:45;3.20;99.90
21772;DHT22;11047;47.904;8.110;2022-11-20T05:42:13;3.20;99.90
21772;DHT22;11047;47.904;8.110;2022-11-20T05:44:58;3.30;99.90
21772;DHT22;11047;47.904;8.110;2022-11-20T05:47:25;3.30;99.90
21772;DHT22;11047;47.904;8.110;2022-11-20T05:49:54;3.30;99.90
21772;DHT22;11047;47.904;8.110;2022-11-20T05:52:20;3.40;99.90
21772;DHT22;11047;47.904;8.110;2022-11-20T05:54:47;3.40;99.90
21772;DHT22;11047;47.904;8.110;2022-11-20T05:57:14;3.30;99.90
21772;DHT22;11047;47.904;8.110;2022-11-20T05:59:41;3.30;99.90
21772;DHT22;11047;47.904;8.110;2022-11-20T06:02:07;3.30;99.90
21772;DHT22;11047;47.904;8.110;2022-11-20T06:04:34;3.30;99.90
21772;DHT22;11047;47.904;8.110;2022-11-20T06:07:02;3.70;99.90
21772;DHT22;11047;47.904;8.110;2022-11-20T06:09:29;3.30;99.90
21772;DHT22;11047;47.904;8.110;2022-11-20T06:11:55;3.40;99.90
21772;DHT22;11047;47.904;8.110;2022-11-20T06:14:22;3.40;99.90
21772;DHT22;11047;47.904;8.110;2022-11-20T06:16:49;3.20;99.90
21772;DHT22;11047;47.904;8.110;2022-11-20T06:19:15;3.30;99.90
21772;DHT22;11047;47.904;8.110;2022-11-20T06:21:42;3.30;99.90
21772;DHT22;11047;47.904;8.110;2022-11-20T06:24:10;3.30;99.90
21772;DHT22;11047;47.904;8.110;2022-11-20T06:26:37;3.30;99.90
21772;DHT22;11047;47.904;8.110;2022-11-20T06:29:04;3.60;99.90
21772;DHT22;11047;47.904;8.110;2022-11-20T06:31:30;3.30;99.90
21772;DHT22;11047;47.904;8.110;2022-11-20T06:34:00;3.30;99.90
21772;DHT22;11047;47.904;8.110;2022-11-20T06:36:26;3.30;99.90
21772;DHT22;11047;47.904;8.110;2022-11-20T06:38:53;3.40;99.90
21772;DHT22;11047;47.904;8.110;2022-11-20T06:41:21;3.60;99.90
21772;DHT22;11047;47.904;8.110;2022-11-20T06:43:48;3.40;99.90
21772;DHT22;11047;47.904;8.110;2022-11-20T06:46:16;3.40;99.90
21772;DHT22;11047;47.904;8.110;2022-11-20T06:48:44;3.40;99.90
21772;DHT22;11047;47.904;8.110;2022-11-20T06:51:10;3.40;99.90
21772;DHT22;11047;47.904;8.110;2022-11-20T06:53:37;3.90;99.90
21772;DHT22;11047;47.904;8.110;2022-11-20T06:56:04;3.40;99.90
21772;DHT22;11047;47.904;8.110;2022-11-20T06:58:34;3.40;99.90
21772;DHT22;11047;47.904;8.110;2022-11-20T07:01:02;3.40;99.90
21772;DHT22;11047;47.904;8.110;2022-11-20T07:03:29;3.40;99.90
21772;DHT22;11047;47.904;8.110;2022-11-20T07:05:55;3.40;99.90
21772;DHT22;11047;47.904;8.110;2022-11-20T07:08:22;3.40;99.90
21772;DHT22;11047;47.904;8.110;2022-11-20T07:10:49;3.40;99.90
21772;DHT22;11047;47.904;8.110;2022-11-20T07:13:16;3.40;99.90
21772;DHT22;11047;47.904;8.110;2022-11-20T07:15:44;3.40;99.90
21772;DHT22;11047;47.904;8.110;2022-11-20T07:18:11;3.40;99.90
21772;DHT22;11047;47.904;8.110;2022-11-20T07:20:37;3.40;99.90
21772;DHT22;11047;47.904;8.110;2022-11-20T07:23:04;3.40;99.90
21772;DHT22;11047;47.904;8.110;2022-11-20T07:25:30;3.40;99.90
21772;DHT22;11047;47.904;8.110;2022-11-20T07:27:58;3.40;99.90
21772;DHT22;11047;47.904;8.110;2022-11-20T07:30:24;3.40;99.90
21772;DHT22;11047;47.904;8.110;2022-11-20T07:32:53;3.40;99.90
21772;DHT22;11047;47.904;8.110;2022-11-20T07:35:20;3.40;99.90
21772;DHT22;11047;47.904;8.110;2022-11-20T07:37:47;3.40;99.90
21772;DHT22;11047;47.904;8.110;2022-11-20T07:40:14;3.30;99.90
21772;DHT22;11047;47.904;8.110;2022-11-20T07:42:46;3.30;99.90
21772;DHT22;11047;47.904;8.110;2022-11-20T07:45:13;3.30;99.90
21772;DHT22;11047;47.904;8.110;2022-11-20T07:47:40;3.40;99.90
21772;DHT22;11047;47.904;8.110;2022-11-20T07:50:08;3.30;99.90
21772;DHT22;11047;47.904;8.110;2022-11-20T07:52:35;3.30;99.90
21772;DHT22;11047;47.904;8.110;2022-11-20T07:55:02;3.30;99.90
21772;DHT22;11047;47.904;8.110;2022-11-20T07:57:29;3.40;99.90
21772;DHT22;11047;47.904;8.110;2022-11-20T07:59:55;3.50;99.90
21772;DHT22;11047;47.904;8.110;2022-11-20T08:02:22;3.00;99.90
21772;DHT22;11047;47.904;8.110;2022-11-20T08:04:49;3.50;99.90
21772;DHT22;11047;47.904;8.110;2022-11-20T08:07:17;3.60;99.90
21772;DHT22;11047;47.904;8.110;2022-11-20T08:09:43;3.70;99.90
21772;DHT22;11047;47.904;8.110;2022-11-20T08:12:10;3.70;99.90
21772;DHT22;11047;47.904;8.110;2022-11-20T08:15:00;3.70;99.90
21772;DHT22;11047;47.904;8.110;2022-11-20T08:17:27;3.70;99.90
21772;DHT22;11047;47.904;8.110;2022-11-20T08:19:53;3.70;99.90
21772;DHT22;11047;47.904;8.110;2022-11-20T08:22:21;3.80;99.90
21772;DHT22;11047;47.904;8.110;2022-11-20T08:24:48;3.70;99.90
21772;DHT22;11047;47.904;8.110;2022-11-20T08:27:15;3.60;99.90
21772;DHT22;11047;47.904;8.110;2022-11-20T08:29:41;3.60;99.90
21772;DHT22;11047;47.904;8.110;2022-11-20T08:32:08;3.60;99.90
21772;DHT22;11047;47.904;8.110;2022-11-20T08:34:35;3.60;99.90
21772;DHT22;11047;47.904;8.110;2022-11-20T08:37:02;3.60;99.90
21772;DHT22;11047;47.904;8.110;2022-11-20T08:39:30;3.60;99.90
21772;DHT22;11047;47.904;8.110;2022-11-20T08:41:57;3.60;99.90
21772;DHT22;11047;47.904;8.110;2022-11-20T08:44:23;3.70;99.90
21772;DHT22;11047;47.904;8.110;2022-11-20T08:46:50;3.70;99.90
21772;DHT22;11047;47.904;8.110;2022-11-20T08:49:17;3.70;99.90
21772;DHT22;11047;47.904;8.110;2022-11-20T08:51:44;3.70;99.90
21772;DHT22;11047;47.904;8.110;2022-11-20T08:54:12;3.70;99.90
21772;DHT22;11047;47.904;8.110;2022-11-20T08:56:40;3.70;99.90
21772;DHT22;11047;47.904;8.110;2022-11-20T08:59:07;3.60;99.90
21772;DHT22;11047;47.904;8.110;2022-11-20T09:01:33;3.70;99.90
21772;DHT22;11047;47.904;8.110;2022-11-20T09:04:00;3.70;99.90
21772;DHT22;11047;47.904;8.110;2022-11-20T09:06:29;3.80;99.90
21772;DHT22;11047;47.904;8.110;2022-11-20T09:08:55;3.80;99.90
21772;DHT22;11047;47.904;8.110;2022-11-20T09:11:22;3.80;99.90
21772;DHT22;11047;47.904;8.110;2022-11-20T09:13:50;3.80;99.90
21772;DHT22;11047;47.904;8.110;2022-11-20T09:16:17;3.80;99.90
21772;DHT22;11047;47.904;8.110;2022-11-20T09:18:43;3.90;99.90
21772;DHT22;11047;47.904;8.110;2022-11-20T09:21:11;3.90;99.90
21772;DHT22;11047;47.904;8.110;2022-11-20T09:23:39;3.90;99.90
21772;DHT22;11047;47.904;8.110;2022-11-20T09:26:06;4.00;99.90
21772;DHT22;11047;47.904;8.110;2022-11-20T09:28:33;4.10;99.90
21772;DHT22;11047;47.904;8.110;2022-11-20T09:31:03;4.10;99.90
21772;DHT22;11047;47.904;8.110;2022-11-20T09:33:31;4.20;99.90
21772;DHT22;11047;47.904;8.110;2022-11-20T09:35:58;4.20;99.90
21772;DHT22;11047;47.904;8.110;2022-11-20T09:38:24;4.20;99.90
21772;DHT22;11047;47.904;8.110;2022-11-20T09:40:52;4.20;99.90
21772;DHT22;11047;47.904;8.110;2022-11-20T09:43:24;4.00;99.90
21772;DHT22;11047;47.904;8.110;2022-11-20T09:45:58;3.90;99.90
21772;DHT22;11047;47.904;8.110;2022-11-20T09:48:33;4.00;99.90
21772;DHT22;11047;47.904;8.110;2022-11-20T09:51:04;3.90;99.90
21772;DHT22;11047;47.904;8.110;2022-11-20T09:53:37;3.80;99.90
21772;DHT22;11047;47.904;8.110;2022-11-20T09:56:11;3.90;99.90
21772;DHT22;11047;47.904;8.110;2022-11-20T09:58:38;3.80;99.90
21772;DHT22;11047;47.904;8.110;2022-11-20T10:01:09;3.90;99.90
21772;DHT22;11047;47.904;8.110;2022-11-20T10:03:39;4.40;99.90
21772;DHT22;11047;47.904;8.110;2022-11-20T10:06:08;3.90;99.90
21772;DHT22;11047;47.904;8.110;2022-11-20T10:08:39;3.90;99.90
21772;DHT22;11047;47.904;8.110;2022-11-20T10:11:09;4.20;99.90
21772;DHT22;11047;47.904;8.110;2022-11-20T10:13:39;3.90;99.90
21772;DHT22;11047;47.904;8.110;2022-11-20T10:16:11;3.90;99.90
21772;DHT22;11047;47.904;8.110;2022-11-20T10:18:51;3.80;99.90
21772;DHT22;11047;47.904;8.110;2022-11-20T10:21:23;3.80;99.90
21772;DHT22;11047;47.904;8.110;2022-11-20T10:23:59;3.70;99.90
21772;DHT22;11047;47.904;8.110;2022-11-20T10:26:31;3.70;99.90
21772;DHT22;11047;47.904;8.110;2022-11-20T10:29:06;3.60;99.90
21772;DHT22;11047;47.904;8.110;2022-11-20T10:31:36;3.70;99.90
21772;DHT22;11047;47.904;8.110;2022-11-20T10:34:06;3.70;99.90
21772;DHT22;11047;47.904;8.110;2022-11-20T10:36:34;3.70;99.90
21772;DHT22;11047;47.904;8.110;2022-11-20T10:39:05;3.80;99.90
21772;DHT22;11047;47.904;8.110;2022-11-20T10:41:33;3.80;99.90
21772;DHT22;11047;47.904;8.110;2022-11-20T10:44:03;3.80;99.90
21772;DHT22;11047;47.904;8.110;2022-11-20T10:46:34;3.80;99.90
21772;DHT22;11047;47.904;8.110;2022-11-20T10:49:03;3.80;99.90
21772;DHT22;11047;47.904;8.110;2022-11-20T10:51:35;3.80;99.90
21772;DHT22;11047;47.904;8.110;2022-11-20T10:54:06;4.00;99.90
21772;DHT22;11047;47.904;8.110;2022-11-20T10:56:37;4.70;99.90
21772;DHT22;11047;47.904;8.110;2022-11-20T10:59:15;3.90;99.90
21772;DHT22;11047;47.904;8.110;2022-11-20T11:01:43;4.00;99.90
21772;DHT22;11047;47.904;8.110;2022-11-20T11:04:16;4.20;99.90
21772;DHT22;11047;47.904;8.110;2022-11-20T11:06:46;4.30;99.90
21772;DHT22;11047;47.904;8.110;2022-11-20T11:09:15;4.20;99.90
21772;DHT22;11047;47.904;8.110;2022-11-20T11:11:43;4.30;99.90
21772;DHT22;11047;47.904;8.110;2022-11-20T11:14:11;4.30;99.90
21772;DHT22;11047;47.904;8.110;2022-11-20T11:16:44;4.00;99.90
21772;DHT22;11047;47.904;8.110;2022-11-20T11:19:15;3.90;99.90
21772;DHT22;11047;47.904;8.110;2022-11-20T11:21:47;4.00;99.90
21772;DHT22;11047;47.904;8.110;2022-11-20T11:24:19;3.90;99.90
21772;DHT22;11047;47.904;8.110;2022-11-20T11:26:50;4.00;99.90
21772;DHT22;11047;47.904;8.110;2022-11-20T11:29:18;3.90;99.90
21772;DHT22;11047;47.904;8.110;2022-11-20T11:31:45;3.80;99.90
21772;DHT22;11047;47.904;8.110;2022-11-20T11:34:12;3.90;99.90
21772;DHT22;11047;47.904;8.110;2022-11-20T11:36:39;4.10;99.90
21772;DHT22;11047;47.904;8.110;2022-11-20T11:39:14;4.30;99.90
21772;DHT22;11047;47.904;8.110;2022-11-20T11:41:41;4.50;99.90
21772;DHT22;11047;47.904;8.110;2022-11-20T11:44:14;4.40;99.90
21772;DHT22;11047;47.904;8.110;2022-11-20T11:46:59;4.40;99.90
21772;DHT22;11047;47.904;8.110;2022-11-20T11:49:26;4.40;99.90
21772;DHT22;11047;47.904;8.110;2022-11-20T11:52:03;4.40;99.90
21772;DHT22;11047;47.904;8.110;2022-11-20T11:54:34;4.30;99.90
21772;DHT22;11047;47.904;8.110;2022-11-20T11:57:01;4.50;99.90
21772;DHT22;11047;47.904;8.110;2022-11-20T11:59:33;4.50;99.90
21772;DHT22;11047;47.904;8.110;2022-11-20T12:02:05;4.50;99.90
21772;DHT22;11047;47.904;8.110;2022-11-20T12:04:42;4.60;99.90
21772;DHT22;11047;47.904;8.110;2022-11-20T12:07:10;4.70;99.90
21772;DHT22;11047;47.904;8.110;2022-11-20T12:09:41;4.80;99.90
21772;DHT22;11047;47.904;8.110;2022-11-20T12:12:10;4.80;99.90
21772;DHT22;11047;47.904;8.110;2022-11-20T12:14:40;4.70;99.90
21772;DHT22;11047;47.904;8.110;2022-11-20T12:17:07;4.80;99.90
21772;DHT22;11047;47.904;8.110;2022-11-20T12:19:35;4.70;99.90
21772;DHT22;11047;47.904;8.110;2022-11-20T12:22:02;4.70;99.90
21772;DHT22;11047;47.904;8.110;2022-11-20T12:24:44;4.60;99.90
21772;DHT22;11047;47.904;8.110;2022-11-20T12:30:06;4.60;99.90
21772;DHT22;11047;47.904;8.110;2022-11-20T12:32:41;4.50;99.90
21772;DHT22;11047;47.904;8.110;2022-11-20T12:35:17;4.60;99.90
21772;DHT22;11047;47.904;8.110;2022-11-20T12:37:48;4.80;99.90
21772;DHT22;11047;47.904;8.110;2022-11-20T12:40:27;5.00;99.90
21772;DHT22;11047;47.904;8.110;2022-11-20T12:43:01;5.10;99.90
21772;DHT22;11047;47.904;8.110;2022-11-20T12:45:51;4.90;99.90
21772;DHT22;11047;47.904;8.110;2022-11-20T12:48:26;4.90;99.90
21772;DHT22;11047;47.904;8.110;2022-11-20T12:50:59;4.70;99.90
21772;DHT22;11047;47.904;8.110;2022-11-20T12:53:32;4.70;99.90
21772;DHT22;11047;47.904;8.110;2022-11-20T12:56:03;4.70;99.90
21772;DHT22;11047;47.904;8.110;2022-11-20T12:58:34;4.70;99.90
21772;DHT22;11047;47.904;8.110;2022-11-20T13:01:08;4.80;99.90
21772;DHT22;11047;47.904;8.110;2022-11-20T13:03:58;4.80;99.90
21772;DHT22;11047;47.904;8.110;2022-11-20T13:06:27;4.60;99.90
21772;DHT22;11047;47.904;8.110;2022-11-20T13:08:54;4.90;99.90
21772;DHT22;11047;47.904;8.110;2022-11-20T13:11:24;4.60;99.90
21772;DHT22;11047;47.904;8.110;2022-11-20T13:14:03;4.40;99.90
21772;DHT22;11047;47.904;8.110;2022-11-20T13:16:32;4.50;99.90
21772;DHT22;11047;47.904;8.110;2022-11-20T13:19:01;4.50;99.90
21772;DHT22;11047;47.904;8.110;2022-11-20T13:21:35;4.40;99.90
21772;DHT22;11047;47.904;8.110;2022-11-20T13:24:03;4.50;99.90
21772;DHT22;11047;47.904;8.110;2022-11-20T13:26:31;4.60;99.90
21772;DHT22;11047;47.904;8.110;2022-11-20T13:28:59;4.50;99.90
21772;DHT22;11047;47.904;8.110;2022-11-20T13:31:29;4.50;99.90
21772;DHT22;11047;47.904;8.110;2022-11-20T13:33:57;4.60;99.90
21772;DHT22;11047;47.904;8.110;2022-11-20T13:36:25;4.50;99.90
21772;DHT22;11047;47.904;8.110;2022-11-20T13:38:52;4.60;99.90
21772;DHT22;11047;47.904;8.110;2022-11-20T13:41:23;4.60;99.90
21772;DHT22;11047;47.904;8.110;2022-11-20T13:44:06;4.50;99.90
21772;DHT22;11047;47.904;8.110;2022-11-20T13:46:39;4.40;99.90
21772;DHT22;11047;47.904;8.110;2022-11-20T13:49:08;4.30;99.90
21772;DHT22;11047;47.904;8.110;2022-11-20T13:51:37;4.20;99.90
21772;DHT22;11047;47.904;8.110;2022-11-20T13:56:56;4.20;99.90
21772;DHT22;11047;47.904;8.110;2022-11-20T13:59:38;4.30;99.90
21772;DHT22;11047;47.904;8.110;2022-11-20T14:02:09;4.40;99.90
21772;DHT22;11047;47.904;8.110;2022-11-20T14:04:37;4.40;99.90
21772;DHT22;11047;47.904;8.110;2022-11-20T14:07:08;4.70;99.90
21772;DHT22;11047;47.904;8.110;2022-11-20T14:09:35;4.40;99.90
21772;DHT22;11047;47.904;8.110;2022-11-20T14:12:02;4.30;99.90
21772;DHT22;11047;47.904;8.110;2022-11-20T14:14:30;4.20;99.90
21772;DHT22;11047;47.904;8.110;2022-11-20T14:17:06;4.40;99.90
21772;DHT22;11047;47.904;8.110;2022-11-20T14:19:33;4.30;99.90
21772;DHT22;11047;47.904;8.110;2022-11-20T14:22:07;4.40;99.90
21772;DHT22;11047;47.904;8.110;2022-11-20T14:24:35;4.70;99.90
21772;DHT22;11047;47.904;8.110;2022-11-20T14:27:01;4.50;99.90
21772;DHT22;11047;47.904;8.110;2022-11-20T14:29:29;4.90;99.90
21772;DHT22;11047;47.904;8.110;2022-11-20T14:31:56;4.40;99.90
21772;DHT22;11047;47.904;8.110;2022-11-20T14:34:25;4.50;99.90
21772;DHT22;11047;47.904;8.110;2022-11-20T14:36:57;4.50;99.90
21772;DHT22;11047;47.904;8.110;2022-11-20T14:39:25;4.60;99.90
21772;DHT22;11047;47.904;8.110;2022-11-20T14:41:53;4.50;99.90
21772;DHT22;11047;47.904;8.110;2022-11-20T14:44:20;4.50;99.90
21772;DHT22;11047;47.904;8.110;2022-11-20T14:46:47;4.40;99.90
21772;DHT22;11047;47.904;8.110;2022-11-20T14:49:14;4.30;99.90
21772;DHT22;11047;47.904;8.110;2022-11-20T14:51:42;4.30;99.90
21772;DHT22;11047;47.904;8.110;2022-11-20T14:54:10;4.10;99.90
21772;DHT22;11047;47.904;8.110;2022-11-20T14:56:38;4.10;99.90
21772;DHT22;11047;47.904;8.110;2022-11-20T14:59:04;4.10;99.90
21772;DHT22;11047;47.904;8.110;2022-11-20T15:01:32;4.10;99.90
21772;DHT22;11047;47.904;8.110;2022-11-20T15:03:59;3.90;99.90
21772;DHT22;11047;47.904;8.110;2022-11-20T15:06:26;3.90;99.90
21772;DHT22;11047;47.904;8.110;2022-11-20T15:08:55;3.90;99.90
21772;DHT22;11047;47.904;8.110;2022-11-20T15:11:24;3.90;99.90
21772;DHT22;11047;47.904;8.110;2022-11-20T15:13:52;3.90;99.90
21772;DHT22;11047;47.904;8.110;2022-11-20T15:16:20;3.90;99.90
21772;DHT22;11047;47.904;8.110;2022-11-20T15:18:46;3.80;99.90
21772;DHT22;11047;47.904;8.110;2022-11-20T15:21:14;3.90;99.90
21772;DHT22;11047;47.904;8.110;2022-11-20T15:23:41;3.80;99.90
21772;DHT22;11047;47.904;8.110;2022-11-20T15:26:10;3.90;99.90
21772;DHT22;11047;47.904;8.110;2022-11-20T15:28:39;3.90;99.90
21772;DHT22;11047;47.904;8.110;2022-11-20T15:31:06;3.80;99.90
21772;DHT22;11047;47.904;8.110;2022-11-20T15:33:33;3.80;99.90
21772;DHT22;11047;47.904;8.110;2022-11-20T15:35:59;3.70;99.90
21772;DHT22;11047;47.904;8.110;2022-11-20T15:38:26;3.70;99.90
21772;DHT22;11047;47.904;8.110;2022-11-20T15:40:53;3.70;99.90
21772;DHT22;11047;47.904;8.110;2022-11-20T15:43:21;3.70;99.90
21772;DHT22;11047;47.904;8.110;2022-11-20T15:45:48;3.60;99.90
21772;DHT22;11047;47.904;8.110;2022-11-20T15:48:17;3.60;99.90
21772;DHT22;11047;47.904;8.110;2022-11-20T15:50:46;3.70;99.90
21772;DHT22;11047;47.904;8.110;2022-11-20T15:53:16;3.70;99.90
21772;DHT22;11047;47.904;8.110;2022-11-20T15:55:42;3.60;99.90
21772;DHT22;11047;47.904;8.110;2022-11-20T15:58:09;3.70;99.90
21772;DHT22;11047;47.904;8.110;2022-11-20T16:00:37;3.70;99.90